createdAt,value
2018-07-22T00:00:24.144Z,15.80
2018-07-22T00:02:52.887Z,15.80
2018-07-22T00:05:21.604Z,15.80
2018-07-22T00:07:50.300Z,15.80
2018-07-22T00:10:27.101Z,15.70
2018-07-22T00:12:56.019Z,15.70
2018-07-22T00:15:24.715Z,15.60
2018-07-22T00:17:53.486Z,15.60
2018-07-22T00:20:22.203Z,15.60
2018-07-22T00:22:50.907Z,15.60
2018-07-22T00:25:19.624Z,15.50
2018-07-22T00:27:48.427Z,15.50
2018-07-22T00:30:17.144Z,15.50
2018-07-22T00:32:45.825Z,15.40
2018-07-22T00:35:14.531Z,15.40
2018-07-22T00:37:43.219Z,15.40
2018-07-22T00:40:12.594Z,15.40
2018-07-22T00:42:41.345Z,15.40
2018-07-22T00:45:12.094Z,15.30
2018-07-22T00:47:41.365Z,15.30
2018-07-22T00:50:10.091Z,15.40
2018-07-22T00:52:39.720Z,15.30
2018-07-22T00:55:08.457Z,15.30
2018-07-22T00:57:37.169Z,15.30
2018-07-22T01:00:07.053Z,15.30
2018-07-22T01:02:35.711Z,15.20
2018-07-22T01:05:04.458Z,15.20
2018-07-22T01:07:33.113Z,15.20
2018-07-22T01:10:01.829Z,15.20
2018-07-22T01:12:30.495Z,15.10
2018-07-22T01:14:59.146Z,15.10
2018-07-22T01:17:27.867Z,15.10
2018-07-22T01:19:56.655Z,15.10
2018-07-22T01:22:25.336Z,15.10
2018-07-22T01:24:54.011Z,15.10
2018-07-22T01:27:22.691Z,15.10
2018-07-22T01:29:51.477Z,15.10
2018-07-22T01:32:20.154Z,15.20
2018-07-22T01:34:48.891Z,15.20
2018-07-22T01:37:17.583Z,15.30
2018-07-22T01:39:46.309Z,15.30
2018-07-22T01:42:15.009Z,15.20
2018-07-22T01:44:43.696Z,15.20
2018-07-22T01:47:12.470Z,15.20
2018-07-22T01:49:41.090Z,15.10
2018-07-22T01:52:09.827Z,15.00
2018-07-22T01:54:38.573Z,15.00
2018-07-22T01:57:07.228Z,15.00
2018-07-22T01:59:35.936Z,14.90
2018-07-22T02:02:04.759Z,15.00
2018-07-22T02:04:33.467Z,15.00
2018-07-22T02:07:02.161Z,15.00
2018-07-22T02:09:30.808Z,15.10
2018-07-22T02:11:59.500Z,15.10
2018-07-22T02:14:28.247Z,15.00
2018-07-22T02:16:56.930Z,15.00
2018-07-22T02:19:25.576Z,14.90
2018-07-22T02:21:54.279Z,14.90
2018-07-22T02:24:22.974Z,14.90
2018-07-22T02:26:51.659Z,14.90
2018-07-22T02:29:20.409Z,14.90
2018-07-22T02:31:49.172Z,14.90
2018-07-22T02:34:17.885Z,14.90
2018-07-22T02:36:46.619Z,15.00
2018-07-22T02:39:15.345Z,15.00
2018-07-22T02:41:44.164Z,14.90
2018-07-22T02:44:12.840Z,14.80
2018-07-22T02:46:41.570Z,14.80
2018-07-22T02:49:10.220Z,14.80
2018-07-22T02:51:38.892Z,14.80
2018-07-22T02:54:07.653Z,14.80
2018-07-22T02:56:36.297Z,14.90
2018-07-22T02:59:06.009Z,14.80
2018-07-22T03:01:36.981Z,14.80
2018-07-22T03:04:06.683Z,14.80
2018-07-22T03:06:35.342Z,14.80
2018-07-22T03:09:06.755Z,14.80
2018-07-22T03:11:35.473Z,14.90
2018-07-22T03:14:04.254Z,14.90
2018-07-22T03:16:32.940Z,14.90
2018-07-22T03:19:02.420Z,14.80
2018-07-22T03:21:31.089Z,14.80
2018-07-22T03:23:59.783Z,14.70
2018-07-22T03:26:28.447Z,14.70
2018-07-22T03:28:57.149Z,14.70
2018-07-22T03:31:25.813Z,14.60
2018-07-22T03:33:54.525Z,14.50
2018-07-22T03:36:23.218Z,14.50
2018-07-22T03:38:51.921Z,14.60
2018-07-22T03:41:20.622Z,14.70
2018-07-22T03:43:49.387Z,14.80
2018-07-22T03:46:18.088Z,14.80
2018-07-22T03:48:46.822Z,14.80
2018-07-22T03:51:15.498Z,14.80
2018-07-22T03:53:44.281Z,14.80
2018-07-22T03:56:12.958Z,14.80
2018-07-22T03:58:41.636Z,14.70
2018-07-22T04:01:10.339Z,14.60
2018-07-22T04:03:39.036Z,14.70
2018-07-22T04:06:07.709Z,14.70
2018-07-22T04:08:36.365Z,14.70
2018-07-22T04:11:05.054Z,14.70
2018-07-22T04:13:46.269Z,14.80
2018-07-22T04:16:15.126Z,14.80
2018-07-22T04:18:48.945Z,15.00
2018-07-22T04:21:18.241Z,15.00
2018-07-22T04:23:47.026Z,15.00
2018-07-22T04:26:15.748Z,15.10
2018-07-22T04:28:44.451Z,15.10
2018-07-22T04:31:13.168Z,15.10
2018-07-22T04:36:10.254Z,15.30
2018-07-22T04:38:45.420Z,15.40
2018-07-22T04:41:14.139Z,15.40
2018-07-22T04:43:42.833Z,15.50
2018-07-22T04:46:11.522Z,15.60
2018-07-22T04:48:40.266Z,15.60
2018-07-22T04:51:08.975Z,15.80
2018-07-22T04:53:37.742Z,15.90
2018-07-22T04:56:06.418Z,15.90
2018-07-22T04:58:35.139Z,16.00
2018-07-22T05:01:03.852Z,16.00
2018-07-22T05:03:32.578Z,16.10
2018-07-22T05:06:01.233Z,16.30
2018-07-22T05:08:29.899Z,16.40
2018-07-22T05:10:58.656Z,16.50
2018-07-22T05:13:27.364Z,16.60
2018-07-22T05:15:56.060Z,16.60
2018-07-22T05:18:24.771Z,16.60
2018-07-22T05:20:53.483Z,16.80
2018-07-22T05:23:22.163Z,16.80
2018-07-22T05:25:50.903Z,17.10
2018-07-22T05:28:19.667Z,17.40
2018-07-22T05:30:48.466Z,18.00
2018-07-22T05:33:17.196Z,18.30
2018-07-22T05:35:45.947Z,18.40
2018-07-22T05:38:14.652Z,18.70
2018-07-22T05:40:43.445Z,18.90
2018-07-22T05:43:12.091Z,19.10
2018-07-22T05:45:40.832Z,19.30
2018-07-22T05:48:09.518Z,19.50
2018-07-22T05:50:38.239Z,19.90
2018-07-22T05:53:07.087Z,19.90
2018-07-22T05:55:35.846Z,20.00
2018-07-22T05:58:04.830Z,19.80
2018-07-22T06:00:33.524Z,19.90
2018-07-22T06:03:03.403Z,20.00
2018-07-22T06:05:32.083Z,20.40
2018-07-22T06:08:03.694Z,20.40
2018-07-22T06:10:32.378Z,20.70
2018-07-22T06:13:01.096Z,20.70
2018-07-22T06:15:29.736Z,21.10
2018-07-22T06:17:58.498Z,21.20
2018-07-22T06:20:27.193Z,21.30
2018-07-22T06:22:55.934Z,21.30
2018-07-22T06:25:24.775Z,21.30
2018-07-22T06:27:53.475Z,21.30
2018-07-22T06:30:22.204Z,21.70
2018-07-22T06:32:50.875Z,22.10
2018-07-22T06:35:19.623Z,22.10
2018-07-22T06:37:48.314Z,22.30
2018-07-22T06:40:17.040Z,22.60
2018-07-22T06:42:45.733Z,22.70
2018-07-22T06:45:14.470Z,22.80
2018-07-22T06:47:43.313Z,23.20
2018-07-22T06:50:12.088Z,23.50
2018-07-22T06:52:40.786Z,23.80
2018-07-22T06:55:09.524Z,24.10
2018-07-22T06:57:38.261Z,24.50
2018-07-22T07:00:06.968Z,24.30
2018-07-22T07:02:35.645Z,24.50
2018-07-22T07:05:10.900Z,24.80
2018-07-22T07:07:39.587Z,25.10
2018-07-22T07:10:08.326Z,25.10
2018-07-22T07:15:06.704Z,25.80
2018-07-22T07:20:04.054Z,26.70
2018-07-22T07:22:32.813Z,26.80
2018-07-22T07:25:01.723Z,26.60
2018-07-22T07:27:30.568Z,26.50
2018-07-22T07:32:27.860Z,26.60
2018-07-22T07:34:56.620Z,27.00
2018-07-22T07:37:25.380Z,27.20
2018-07-22T07:39:54.350Z,27.70
2018-07-22T07:42:23.145Z,28.20
2018-07-22T07:44:52.187Z,28.00
2018-07-22T07:47:20.947Z,28.30
2018-07-22T07:49:49.756Z,28.10
2018-07-22T07:52:18.480Z,28.00
2018-07-22T07:54:47.283Z,28.00
2018-07-22T07:57:16.022Z,28.20
2018-07-22T07:59:44.866Z,28.60
2018-07-22T08:02:13.559Z,28.90
2018-07-22T08:04:42.270Z,28.50
2018-07-22T08:07:11.063Z,28.90
2018-07-22T08:09:39.828Z,29.20
2018-07-22T08:12:08.661Z,29.30
2018-07-22T08:14:37.358Z,29.50
2018-07-22T08:17:06.300Z,29.60
2018-07-22T08:19:34.981Z,30.10
2018-07-22T08:22:03.730Z,30.20
2018-07-22T08:24:32.495Z,30.30
2018-07-22T08:27:01.208Z,30.10
2018-07-22T08:29:31.059Z,29.30
2018-07-22T08:32:00.275Z,29.50
2018-07-22T08:34:29.103Z,29.80
2018-07-22T08:36:57.904Z,30.40
2018-07-22T08:39:27.904Z,31.20
2018-07-22T08:41:57.472Z,30.70
2018-07-22T08:46:54.515Z,30.40
2018-07-22T08:49:23.393Z,30.60
2018-07-22T08:51:52.117Z,31.00
2018-07-22T08:54:20.790Z,30.30
2018-07-22T08:56:49.632Z,30.50
2018-07-22T08:59:18.296Z,30.20
2018-07-22T09:01:47.323Z,30.60
2018-07-22T09:04:16.067Z,30.70
2018-07-22T09:06:44.760Z,30.60
2018-07-22T09:09:13.627Z,30.30
2018-07-22T09:11:42.404Z,30.50
2018-07-22T09:14:11.300Z,31.00
2018-07-22T09:16:40.002Z,31.00
2018-07-22T09:19:10.723Z,30.70
2018-07-22T09:21:39.415Z,31.00
2018-07-22T09:24:08.146Z,31.20
2018-07-22T09:26:36.816Z,31.10
2018-07-22T09:29:05.564Z,31.70
2018-07-22T09:31:34.274Z,32.20
2018-07-22T09:34:02.953Z,32.50
2018-07-22T09:39:00.052Z,32.40
2018-07-22T09:41:28.779Z,32.10
2018-07-22T09:43:57.523Z,32.40
2018-07-22T09:46:26.294Z,32.60
2018-07-22T09:48:55.013Z,32.90
2018-07-22T09:51:27.144Z,32.60
2018-07-22T09:53:59.624Z,32.70
2018-07-22T09:56:28.343Z,32.90
2018-07-22T09:58:57.140Z,33.10
2018-07-22T10:01:26.065Z,32.60
2018-07-22T10:03:54.847Z,33.00
2018-07-22T10:06:23.779Z,33.40
2018-07-22T10:08:52.624Z,33.10
2018-07-22T10:11:21.528Z,32.40
2018-07-22T10:13:50.298Z,32.60
2018-07-22T10:16:18.999Z,32.90
2018-07-22T10:18:47.788Z,33.30
2018-07-22T10:21:16.556Z,32.80
2018-07-22T10:23:45.238Z,32.00
2018-07-22T10:26:13.988Z,32.30
2018-07-22T10:28:42.729Z,32.70
2018-07-22T10:31:11.435Z,32.50
2018-07-22T10:33:40.168Z,32.20
2018-07-22T10:36:08.810Z,32.70
2018-07-22T10:38:37.459Z,32.50
2018-07-22T10:41:06.187Z,32.00
2018-07-22T10:43:34.879Z,31.90
2018-07-22T10:46:03.798Z,32.60
2018-07-22T10:48:32.577Z,32.70
2018-07-22T10:51:01.568Z,32.60
2018-07-22T10:55:58.683Z,32.40
2018-07-22T10:58:27.970Z,31.70
2018-07-22T11:00:56.717Z,31.10
2018-07-22T11:03:25.533Z,31.40
2018-07-22T11:05:56.194Z,31.80
2018-07-22T11:08:24.880Z,31.50
2018-07-22T11:10:53.583Z,30.90
2018-07-22T11:13:22.223Z,30.80
2018-07-22T11:15:50.958Z,30.40
2018-07-22T11:18:19.668Z,30.60
2018-07-22T11:20:48.531Z,30.70
2018-07-22T11:23:17.246Z,30.90
2018-07-22T11:25:45.902Z,30.90
2018-07-22T11:28:14.724Z,31.00
2018-07-22T11:30:44.411Z,30.90
2018-07-22T11:33:13.177Z,30.80
2018-07-22T11:35:45.056Z,30.70
2018-07-22T11:40:42.279Z,30.40
2018-07-22T11:43:10.971Z,30.20
2018-07-22T11:45:39.720Z,29.80
2018-07-22T11:48:08.411Z,29.40
2018-07-22T11:50:37.210Z,29.00
2018-07-22T11:53:05.865Z,28.90
2018-07-22T11:55:34.596Z,29.00
2018-07-22T11:58:03.296Z,29.30
2018-07-22T12:00:32.022Z,29.40
2018-07-22T12:03:00.687Z,29.30
2018-07-22T12:05:29.407Z,29.10
2018-07-22T12:07:58.094Z,29.20
2018-07-22T12:10:26.824Z,29.30
2018-07-22T12:12:55.490Z,29.40
2018-07-22T12:15:24.223Z,29.40
2018-07-22T12:17:52.941Z,29.40
2018-07-22T12:20:21.701Z,29.40
2018-07-22T12:22:50.365Z,29.60
2018-07-22T12:25:19.068Z,29.70
2018-07-22T12:30:16.171Z,29.80
2018-07-22T12:32:45.000Z,29.80
2018-07-22T12:35:13.729Z,29.80
2018-07-22T12:37:42.403Z,29.90
2018-07-22T12:42:39.519Z,29.60
2018-07-22T12:45:09.356Z,29.40
2018-07-22T12:47:38.038Z,29.40
2018-07-22T12:50:06.769Z,29.40
2018-07-22T12:52:35.468Z,29.40
2018-07-22T12:55:04.214Z,29.30
2018-07-22T12:57:32.982Z,29.30
2018-07-22T13:00:01.707Z,29.30
2018-07-22T13:02:30.429Z,29.30
2018-07-22T13:04:59.125Z,29.30
2018-07-22T13:07:27.848Z,29.40
2018-07-22T13:09:56.531Z,29.60
2018-07-22T13:12:26.234Z,29.50
2018-07-22T13:14:54.915Z,29.30
2018-07-22T13:17:23.749Z,29.10
2018-07-22T13:19:52.461Z,29.20
2018-07-22T13:22:21.178Z,29.50
2018-07-22T13:24:49.946Z,29.70
2018-07-22T13:27:18.640Z,29.90
2018-07-22T13:29:47.288Z,29.80
2018-07-22T13:32:15.987Z,29.90
2018-07-22T13:34:44.644Z,29.70
2018-07-22T13:39:41.703Z,29.60
2018-07-22T13:42:10.383Z,29.40
2018-07-22T13:44:39.104Z,29.30
2018-07-22T13:47:07.893Z,29.20
2018-07-22T13:49:37.634Z,29.20
2018-07-22T13:52:06.551Z,29.20
2018-07-22T13:54:35.251Z,29.00
2018-07-22T13:57:04.000Z,28.70
2018-07-22T13:59:32.907Z,28.60
2018-07-22T14:02:01.600Z,28.50
2018-07-22T14:04:31.353Z,28.50
2018-07-22T14:07:00.064Z,28.30
2018-07-22T14:09:28.729Z,28.30
2018-07-22T14:11:57.446Z,28.10
2018-07-22T14:14:26.162Z,28.00
2018-07-22T14:16:54.899Z,27.70
2018-07-22T14:19:23.567Z,27.30
2018-07-22T14:21:52.311Z,27.10
2018-07-22T14:24:20.978Z,26.80
2018-07-22T14:26:49.720Z,26.70
2018-07-22T14:29:18.440Z,26.50
2018-07-22T14:31:47.176Z,26.40
2018-07-22T14:34:15.890Z,26.50
2018-07-22T14:36:44.584Z,26.50
2018-07-22T14:39:13.864Z,26.40
2018-07-22T14:41:42.754Z,26.60
2018-07-22T14:44:11.477Z,26.60
2018-07-22T14:46:40.270Z,26.60
2018-07-22T14:49:08.916Z,26.60
2018-07-22T14:51:37.668Z,26.60
2018-07-22T14:54:06.361Z,26.60
2018-07-22T14:56:35.106Z,26.50
2018-07-22T14:59:03.826Z,26.40
2018-07-22T15:01:32.505Z,26.40
2018-07-22T15:04:01.157Z,26.40
2018-07-22T15:06:29.828Z,26.20
2018-07-22T15:08:58.539Z,26.30
2018-07-22T15:11:27.264Z,26.10
2018-07-22T15:13:56.037Z,26.10
2018-07-22T15:16:24.756Z,26.10
2018-07-22T15:18:53.498Z,26.00
2018-07-22T15:21:22.200Z,26.00
2018-07-22T15:23:50.942Z,26.00
2018-07-22T15:26:19.589Z,26.00
2018-07-22T15:28:48.328Z,26.10
2018-07-22T15:31:17.089Z,26.10
2018-07-22T15:33:45.769Z,26.20
2018-07-22T15:36:14.508Z,26.30
2018-07-22T15:38:43.213Z,26.40
2018-07-22T15:41:11.891Z,26.60
2018-07-22T15:43:40.650Z,26.70
2018-07-22T15:46:10.130Z,26.80
2018-07-22T15:48:39.009Z,26.80
2018-07-22T15:51:07.724Z,27.00
2018-07-22T15:53:36.436Z,27.00
2018-07-22T15:56:05.401Z,27.00
2018-07-22T15:58:34.076Z,27.10
2018-07-22T16:01:02.814Z,27.00
2018-07-22T16:03:31.565Z,27.00
2018-07-22T16:06:00.311Z,27.00
2018-07-22T16:08:29.022Z,27.00
2018-07-22T16:10:57.734Z,27.10
2018-07-22T16:13:26.469Z,27.20
2018-07-22T16:15:55.183Z,27.20
2018-07-22T16:18:23.913Z,27.30
2018-07-22T16:20:52.575Z,27.50
2018-07-22T16:23:21.274Z,27.80
2018-07-22T16:25:49.996Z,27.80
2018-07-22T16:28:18.779Z,28.10
2018-07-22T16:30:47.502Z,28.00
2018-07-22T16:33:16.319Z,28.00
2018-07-22T16:35:45.122Z,28.40
2018-07-22T16:38:13.860Z,28.70
2018-07-22T16:40:42.559Z,28.70
2018-07-22T16:43:11.338Z,28.70
2018-07-22T16:45:40.032Z,28.60
2018-07-22T16:48:08.758Z,28.50
2018-07-22T16:50:37.411Z,28.40
2018-07-22T16:53:06.197Z,28.10
2018-07-22T16:55:34.945Z,28.00
2018-07-22T16:58:03.678Z,27.80
2018-07-22T17:00:32.416Z,27.50
2018-07-22T17:03:01.133Z,27.20
2018-07-22T17:05:29.876Z,26.90
2018-07-22T17:07:58.583Z,26.80
2018-07-22T17:10:27.419Z,26.80
2018-07-22T17:12:56.154Z,26.80
2018-07-22T17:15:24.854Z,26.80
2018-07-22T17:17:53.541Z,26.80
2018-07-22T17:20:22.266Z,27.00
2018-07-22T17:22:51.248Z,27.10
2018-07-22T17:25:19.947Z,27.10
2018-07-22T17:27:48.658Z,27.00
2018-07-22T17:30:17.342Z,27.10
2018-07-22T17:32:46.044Z,27.20
2018-07-22T17:35:14.810Z,27.20
2018-07-22T17:37:43.555Z,27.00
2018-07-22T17:40:12.270Z,27.10
2018-07-22T17:42:40.963Z,27.00
2018-07-22T17:45:09.646Z,26.90
2018-07-22T17:47:38.531Z,26.80
2018-07-22T17:50:07.306Z,26.70
2018-07-22T17:52:35.997Z,26.60
2018-07-22T17:55:04.739Z,26.50
2018-07-22T17:57:33.489Z,26.30
2018-07-22T18:00:02.103Z,26.10
2018-07-22T18:02:30.770Z,25.90
2018-07-22T18:04:59.466Z,25.80
2018-07-22T18:07:28.194Z,25.70
2018-07-22T18:09:57.120Z,25.60
2018-07-22T18:12:25.787Z,25.40
2018-07-22T18:14:54.482Z,25.30
2018-07-22T18:17:23.205Z,25.10
2018-07-22T18:19:51.877Z,25.10
2018-07-22T18:22:20.584Z,25.00
2018-07-22T18:24:49.541Z,24.80
2018-07-22T18:27:18.236Z,24.80
2018-07-22T18:29:46.915Z,24.70
2018-07-22T18:32:15.664Z,24.60
2018-07-22T18:34:44.453Z,24.50
2018-07-22T18:37:13.459Z,24.50
2018-07-22T18:39:42.239Z,24.40
2018-07-22T18:42:10.921Z,24.30
2018-07-22T18:44:39.696Z,24.20
2018-07-22T18:47:08.565Z,24.00
2018-07-22T18:49:37.313Z,23.90
2018-07-22T18:52:06.086Z,23.80
2018-07-22T18:54:34.808Z,23.60
2018-07-22T18:57:03.489Z,23.50
2018-07-22T18:59:32.235Z,23.40
2018-07-22T19:02:01.066Z,23.30
2018-07-22T19:04:29.768Z,23.10
2018-07-22T19:06:58.428Z,23.10
2018-07-22T19:09:27.123Z,22.90
2018-07-22T19:11:55.862Z,22.80
2018-07-22T19:14:24.533Z,22.80
2018-07-22T19:16:53.189Z,22.70
2018-07-22T19:19:28.546Z,22.50
2018-07-22T19:21:57.385Z,22.50
2018-07-22T19:24:26.307Z,22.50
2018-07-22T19:26:55.462Z,22.40
2018-07-22T19:29:24.218Z,22.40
2018-07-22T19:31:52.973Z,22.40
2018-07-22T19:34:22.072Z,22.40
2018-07-22T19:36:50.933Z,22.30
2018-07-22T19:39:19.803Z,22.30
2018-07-22T19:41:48.713Z,22.20
2018-07-22T19:44:17.728Z,22.20
2018-07-22T19:51:43.865Z,22.10
2018-07-22T19:54:12.927Z,22.00
2018-07-22T19:56:41.855Z,22.00
2018-07-22T19:59:10.959Z,21.90
2018-07-22T20:01:41.444Z,21.90
2018-07-22T20:04:12.746Z,21.80
2018-07-22T20:06:42.715Z,21.80
2018-07-22T20:09:13.123Z,21.80
2018-07-22T20:11:42.911Z,21.80
2018-07-22T20:14:12.002Z,21.80
2018-07-22T20:16:40.922Z,21.70
2018-07-22T20:19:09.868Z,21.70
2018-07-22T20:21:38.768Z,21.60
2018-07-22T20:24:07.702Z,21.50
2018-07-22T20:29:04.938Z,21.40
2018-07-22T20:31:34.352Z,21.20
2018-07-22T20:34:03.053Z,21.10
2018-07-22T20:36:31.768Z,21.00
2018-07-22T20:39:00.459Z,21.00
2018-07-22T20:41:29.169Z,20.80
2018-07-22T20:43:57.825Z,20.70
2018-07-22T20:46:26.584Z,20.60
2018-07-22T20:48:55.260Z,20.50
2018-07-22T20:51:24.035Z,20.50
2018-07-22T20:53:52.757Z,20.40
2018-07-22T20:56:21.483Z,20.40
2018-07-22T20:58:50.347Z,20.30
2018-07-22T21:01:19.067Z,20.20
2018-07-22T21:03:47.885Z,20.20
2018-07-22T21:06:16.524Z,20.20
2018-07-22T21:08:45.500Z,20.20
2018-07-22T21:11:14.725Z,20.10
2018-07-22T21:13:43.653Z,20.10
2018-07-22T21:16:13.355Z,20.00
2018-07-22T21:18:42.172Z,19.90
2018-07-22T21:21:11.064Z,19.90
2018-07-22T21:23:39.808Z,19.90
2018-07-22T21:26:08.740Z,19.80
2018-07-22T21:28:37.718Z,19.70
2018-07-22T21:31:06.766Z,19.60
2018-07-22T21:33:35.625Z,19.60
2018-07-22T21:36:04.655Z,19.50
2018-07-22T21:38:33.734Z,19.40
2018-07-22T21:41:03.754Z,19.30
2018-07-22T21:43:32.778Z,19.40
2018-07-22T21:46:02.370Z,19.30
2018-07-22T21:48:31.433Z,19.30
2018-07-22T21:51:00.331Z,19.20
2018-07-22T21:53:29.403Z,19.20
2018-07-22T21:55:58.213Z,19.20
2018-07-22T21:58:26.958Z,19.10
2018-07-22T22:00:55.821Z,19.00
2018-07-22T22:03:24.667Z,19.00
2018-07-22T22:05:53.456Z,18.80
2018-07-22T22:08:22.255Z,18.80
2018-07-22T22:10:51.122Z,18.80
2018-07-22T22:13:20.918Z,18.70
2018-07-22T22:15:49.666Z,18.60
2018-07-22T22:18:18.416Z,18.60
2018-07-22T22:20:47.364Z,18.50
2018-07-22T22:23:16.413Z,18.40
2018-07-22T22:25:45.078Z,18.40
2018-07-22T22:28:13.924Z,18.30
2018-07-22T22:30:42.830Z,18.20
2018-07-22T22:33:12.123Z,18.20
2018-07-22T22:35:40.863Z,18.20
2018-07-22T22:38:09.654Z,18.10
2018-07-22T22:40:38.304Z,18.00
2018-07-22T22:43:07.062Z,18.00
2018-07-22T22:45:35.715Z,18.00
2018-07-22T22:48:04.526Z,17.90
2018-07-22T22:50:33.255Z,17.90
2018-07-22T22:53:02.002Z,17.80
2018-07-22T22:55:30.717Z,17.80
2018-07-22T22:58:10.529Z,17.80
2018-07-22T23:00:39.264Z,17.70
2018-07-22T23:03:07.998Z,17.70
2018-07-22T23:05:36.667Z,17.70
2018-07-22T23:08:05.411Z,17.60
2018-07-22T23:10:34.107Z,17.60
2018-07-22T23:13:02.759Z,17.60
2018-07-22T23:15:31.454Z,17.50
2018-07-22T23:18:00.106Z,17.40
2018-07-22T23:20:28.820Z,17.40
2018-07-22T23:22:57.543Z,17.30
2018-07-22T23:25:26.279Z,17.30
2018-07-22T23:27:54.990Z,17.20
2018-07-22T23:30:23.705Z,17.10
2018-07-22T23:32:52.363Z,17.00
2018-07-22T23:35:21.133Z,17.00
2018-07-22T23:37:49.785Z,17.00
2018-07-22T23:40:18.480Z,17.00
2018-07-22T23:42:53.602Z,16.90
2018-07-22T23:45:22.387Z,16.90
2018-07-22T23:47:51.067Z,16.80
2018-07-22T23:50:19.819Z,16.80
2018-07-22T23:52:48.557Z,16.70
2018-07-22T23:55:17.220Z,16.60
2018-07-22T23:57:45.951Z,16.60
